sensor_id;sensor_type;location;lat;lon;timestamp;pressure;altitude;pressure_sealevel;temperature;humidity
64080;BME280;51042;49.696;10.808;2023-04-09T00:01:02;99209.47;;;6.29;100.00
64080;BME280;51042;49.696;10.808;2023-04-09T00:03:28;99219.59;;;6.29;100.00
64080;BME280;51042;49.696;10.808;2023-04-09T00:05:53;99216.09;;;6.28;100.00
64080;BME280;51042;49.696;10.808;2023-04-09T00:08:20;99218.41;;;6.26;100.00
64080;BME280;51042;49.696;10.808;2023-04-09T00:10:45;99218.41;;;6.26;100.00
64080;BME280;51042;49.696;10.808;2023-04-09T00:13:10;99215.69;;;6.23;100.00
64080;BME280;51042;49.696;10.808;2023-04-09T00:15:36;99218.00;;;6.21;100.00
64080;BME280;51042;49.696;10.808;2023-04-09T00:18:01;99209.81;;;6.21;100.00
64080;BME280;51042;49.696;10.808;2023-04-09T00:20:26;99203.59;;;6.17;100.00
64080;BME280;51042;49.696;10.808;2023-04-09T00:22:52;99211.00;;;6.16;100.00
64080;BME280;51042;49.696;10.808;2023-04-09T00:25:18;99207.09;;;6.13;100.00
64080;BME280;51042;49.696;10.808;2023-04-09T00:27:43;99210.59;;;6.14;100.00
64080;BME280;51042;49.696;10.808;2023-04-09T00:30:09;99207.84;;;6.14;100.00
64080;BME280;51042;49.696;10.808;2023-04-09T00:32:35;99208.66;;;6.11;100.00
64080;BME280;51042;49.696;10.808;2023-04-09T00:35:00;99206.28;;;6.09;100.00
64080;BME280;51042;49.696;10.808;2023-04-09T00:37:26;99209.81;;;6.10;100.00
64080;BME280;51042;49.696;10.808;2023-04-09T00:39:51;99209.03;;;6.09;100.00
64080;BME280;51042;49.696;10.808;2023-04-09T00:42:16;99199.69;;;6.07;100.00
64080;BME280;51042;49.696;10.808;2023-04-09T00:44:41;99206.28;;;6.06;100.00
64080;BME280;51042;49.696;10.808;2023-04-09T00:47:07;99205.50;;;6.05;100.00
64080;BME280;51042;49.696;10.808;2023-04-09T00:49:32;99211.34;;;6.04;100.00
64080;BME280;51042;49.696;10.808;2023-04-09T00:51:58;99204.31;;;6.03;100.00
64080;BME280;51042;49.696;10.808;2023-04-09T00:54:23;99202.00;;;6.01;100.00
64080;BME280;51042;49.696;10.808;2023-04-09T00:56:48;99203.53;;;5.99;100.00
64080;BME280;51042;49.696;10.808;2023-04-09T00:59:14;99200.41;;;5.97;100.00
64080;BME280;51042;49.696;10.808;2023-04-09T01:01:40;99199.25;;;5.94;100.00
64080;BME280;51042;49.696;10.808;2023-04-09T01:04:05;99198.47;;;5.94;100.00
64080;BME280;51042;49.696;10.808;2023-04-09T01:06:34;99201.19;;;5.94;100.00
64080;BME280;51042;49.696;10.808;2023-04-09T01:09:18;99201.56;;;5.92;100.00
64080;BME280;51042;49.696;10.808;2023-04-09T01:12:00;99201.97;;;5.94;100.00
64080;BME280;51042;49.696;10.808;2023-04-09T01:14:31;99194.97;;;5.93;100.00
64080;BME280;51042;49.696;10.808;2023-04-09T01:17:08;99197.28;;;5.91;100.00
64080;BME280;51042;49.696;10.808;2023-04-09T01:22:58;99201.13;;;5.83;100.00
64080;BME280;51042;49.696;10.808;2023-04-09T01:25:42;99201.47;;;5.78;100.00
64080;BME280;51042;49.696;10.808;2023-04-09T01:30:52;99203.81;;;5.76;100.00
64080;BME280;51042;49.696;10.808;2023-04-09T01:33:23;99207.31;;;5.77;100.00
64080;BME280;51042;49.696;10.808;2023-04-09T01:35:50;99204.19;;;5.74;100.00
64080;BME280;51042;49.696;10.808;2023-04-09T01:38:17;99197.56;;;5.72;100.00
64080;BME280;51042;49.696;10.808;2023-04-09T01:40:44;99204.19;;;5.71;100.00
64080;BME280;51042;49.696;10.808;2023-04-09T01:43:10;99206.13;;;5.70;100.00
64080;BME280;51042;49.696;10.808;2023-04-09T01:45:38;99206.50;;;5.69;100.00
64080;BME280;51042;49.696;10.808;2023-04-09T01:48:04;99204.94;;;5.68;100.00
64080;BME280;51042;49.696;10.808;2023-04-09T01:50:31;99199.50;;;5.68;100.00
64080;BME280;51042;49.696;10.808;2023-04-09T01:52:56;99203.78;;;5.69;100.00
64080;BME280;51042;49.696;10.808;2023-04-09T01:55:23;99202.63;;;5.70;100.00
64080;BME280;51042;49.696;10.808;2023-04-09T01:57:48;99208.06;;;5.70;100.00
64080;BME280;51042;49.696;10.808;2023-04-09T02:00:14;99208.84;;;5.70;100.00
64080;BME280;51042;49.696;10.808;2023-04-09T02:02:54;99205.34;;;5.70;100.00
64080;BME280;51042;49.696;10.808;2023-04-09T02:05:23;99202.25;;;5.71;100.00
64080;BME280;51042;49.696;10.808;2023-04-09T02:07:53;99204.56;;;5.73;100.00
64080;BME280;51042;49.696;10.808;2023-04-09T02:10:25;99201.06;;;5.72;100.00
64080;BME280;51042;49.696;10.808;2023-04-09T02:12:53;99207.69;;;5.71;100.00
64080;BME280;51042;49.696;10.808;2023-04-09T02:15:20;99209.25;;;5.72;100.00
64080;BME280;51042;49.696;10.808;2023-04-09T02:17:46;99202.25;;;5.71;100.00
64080;BME280;51042;49.696;10.808;2023-04-09T02:20:15;99194.09;;;5.71;100.00
64080;BME280;51042;49.696;10.808;2023-04-09T02:22:41;99192.13;;;5.72;100.00
64080;BME280;51042;49.696;10.808;2023-04-09T02:25:06;99198.38;;;5.76;100.00
64080;BME280;51042;49.696;10.808;2023-04-09T02:27:32;99201.09;;;5.76;100.00
64080;BME280;51042;49.696;10.808;2023-04-09T02:29:57;99202.66;;;5.81;100.00
64080;BME280;51042;49.696;10.808;2023-04-09T02:32:23;99192.56;;;5.81;100.00
64080;BME280;51042;49.696;10.808;2023-04-09T02:34:48;99191.41;;;5.82;100.00
64080;BME280;51042;49.696;10.808;2023-04-09T02:37:13;99198.00;;;5.81;100.00
64080;BME280;51042;49.696;10.808;2023-04-09T02:39:38;99194.91;;;5.83;100.00
64080;BME280;51042;49.696;10.808;2023-04-09T02:42:05;99189.06;;;5.81;100.00
64080;BME280;51042;49.696;10.808;2023-04-09T02:44:31;99197.22;;;5.81;100.00
64080;BME280;51042;49.696;10.808;2023-04-09T02:46:57;99192.16;;;5.79;100.00
64080;BME280;51042;49.696;10.808;2023-04-09T02:49:22;99190.22;;;5.80;100.00
64080;BME280;51042;49.696;10.808;2023-04-09T02:51:47;99199.94;;;5.77;100.00
64080;BME280;51042;49.696;10.808;2023-04-09T02:54:13;99201.06;;;5.72;100.00
64080;BME280;51042;49.696;10.808;2023-04-09T02:56:38;99203.00;;;5.65;100.00
64080;BME280;51042;49.696;10.808;2023-04-09T02:59:03;99211.91;;;5.62;100.00
64080;BME280;51042;49.696;10.808;2023-04-09T03:01:29;99201.81;;;5.59;100.00
64080;BME280;51042;49.696;10.808;2023-04-09T03:03:54;99204.13;;;5.53;100.00
64080;BME280;51042;49.696;10.808;2023-04-09T03:06:19;99198.25;;;5.51;100.00
64080;BME280;51042;49.696;10.808;2023-04-09T03:08:45;99202.13;;;5.50;100.00
64080;BME280;51042;49.696;10.808;2023-04-09T03:11:10;99195.91;;;5.46;100.00
64080;BME280;51042;49.696;10.808;2023-04-09T03:13:35;99189.28;;;5.44;100.00
64080;BME280;51042;49.696;10.808;2023-04-09T03:16:01;99192.41;;;5.42;100.00
64080;BME280;51042;49.696;10.808;2023-04-09T03:18:26;99191.56;;;5.38;100.00
64080;BME280;51042;49.696;10.808;2023-04-09T03:20:51;99193.47;;;5.30;100.00
64080;BME280;51042;49.696;10.808;2023-04-09T03:23:17;99192.25;;;5.21;100.00
64080;BME280;51042;49.696;10.808;2023-04-09T03:25:42;99190.22;;;5.07;100.00
64080;BME280;51042;49.696;10.808;2023-04-09T03:28:07;99191.66;;;4.90;100.00
64080;BME280;51042;49.696;10.808;2023-04-09T03:30:33;99201.66;;;4.76;100.00
64080;BME280;51042;49.696;10.808;2023-04-09T03:32:58;99199.19;;;4.60;100.00
64080;BME280;51042;49.696;10.808;2023-04-09T03:35:23;99199.84;;;4.46;100.00
64080;BME280;51042;49.696;10.808;2023-04-09T03:37:49;99193.91;;;4.34;100.00
64080;BME280;51042;49.696;10.808;2023-04-09T03:40:15;99191.47;;;4.22;100.00
64080;BME280;51042;49.696;10.808;2023-04-09T03:42:43;99192.13;;;4.11;100.00
64080;BME280;51042;49.696;10.808;2023-04-09T03:45:09;99200.16;;;4.01;100.00
64080;BME280;51042;49.696;10.808;2023-04-09T03:47:34;99196.19;;;3.91;100.00
64080;BME280;51042;49.696;10.808;2023-04-09T03:49:59;99202.63;;;3.80;100.00
64080;BME280;51042;49.696;10.808;2023-04-09T03:52:25;99198.16;;;3.64;100.00
64080;BME280;51042;49.696;10.808;2023-04-09T03:54:50;99203.09;;;3.55;100.00
64080;BME280;51042;49.696;10.808;2023-04-09T03:57:16;99199.50;;;3.48;100.00
64080;BME280;51042;49.696;10.808;2023-04-09T03:59:41;99194.41;;;3.43;100.00
64080;BME280;51042;49.696;10.808;2023-04-09T04:02:06;99203.59;;;3.35;100.00
64080;BME280;51042;49.696;10.808;2023-04-09T04:04:32;99198.44;;;3.26;100.00
64080;BME280;51042;49.696;10.808;2023-04-09T04:06:57;99203.78;;;3.19;100.00
64080;BME280;51042;49.696;10.808;2023-04-09T04:09:22;99196.28;;;3.09;100.00
64080;BME280;51042;49.696;10.808;2023-04-09T04:11:48;99198.19;;;3.08;100.00
64080;BME280;51042;49.696;10.808;2023-04-09T04:14:13;99200.56;;;3.10;100.00
64080;BME280;51042;49.696;10.808;2023-04-09T04:16:39;99212.13;;;3.07;100.00
64080;BME280;51042;49.696;10.808;2023-04-09T04:19:05;99206.72;;;3.10;100.00
64080;BME280;51042;49.696;10.808;2023-04-09T04:21:30;99202.09;;;3.11;100.00
64080;BME280;51042;49.696;10.808;2023-04-09T04:23:56;99212.59;;;3.12;100.00
64080;BME280;51042;49.696;10.808;2023-04-09T04:26:21;99212.94;;;3.11;100.00
64080;BME280;51042;49.696;10.808;2023-04-09T04:28:46;99215.66;;;3.11;100.00
64080;BME280;51042;49.696;10.808;2023-04-09T04:31:12;99220.72;;;3.12;100.00
64080;BME280;51042;49.696;10.808;2023-04-09T04:33:37;99225.72;;;3.10;100.00
64080;BME280;51042;49.696;10.808;2023-04-09T04:38:30;99231.53;;;3.09;100.00
64080;BME280;51042;49.696;10.808;2023-04-09T04:40:56;99227.25;;;3.08;100.00
64080;BME280;51042;49.696;10.808;2023-04-09T04:43:21;99237.63;;;3.02;100.00
64080;BME280;51042;49.696;10.808;2023-04-09T04:45:46;99232.19;;;3.02;100.00
64080;BME280;51042;49.696;10.808;2023-04-09T04:48:12;99236.00;;;2.98;100.00
64080;BME280;51042;49.696;10.808;2023-04-09T04:50:37;99236.34;;;2.96;100.00
64080;BME280;51042;49.696;10.808;2023-04-09T04:53:02;99248.34;;;2.95;100.00
64080;BME280;51042;49.696;10.808;2023-04-09T04:55:28;99237.38;;;2.88;100.00
64080;BME280;51042;49.696;10.808;2023-04-09T04:57:53;99247.44;;;2.87;100.00
64080;BME280;51042;49.696;10.808;2023-04-09T05:00:18;99254.88;;;2.91;100.00
64080;BME280;51042;49.696;10.808;2023-04-09T05:02:44;99251.47;;;2.97;100.00
64080;BME280;51042;49.696;10.808;2023-04-09T05:05:09;99250.88;;;3.63;100.00
64080;BME280;51042;49.696;10.808;2023-04-09T05:07:35;99248.09;;;4.60;100.00
64080;BME280;51042;49.696;10.808;2023-04-09T05:10:00;99242.91;;;5.36;100.00
64080;BME280;51042;49.696;10.808;2023-04-09T05:12:25;99249.97;;;6.34;100.00
64080;BME280;51042;49.696;10.808;2023-04-09T05:14:51;99248.91;;;7.20;93.12
64080;BME280;51042;49.696;10.808;2023-04-09T05:17:16;99252.16;;;8.09;90.31
64080;BME280;51042;49.696;10.808;2023-04-09T05:19:41;99255.44;;;8.59;83.79
64080;BME280;51042;49.696;10.808;2023-04-09T05:22:07;99248.38;;;9.17;80.36
64080;BME280;51042;49.696;10.808;2023-04-09T05:24:32;99253.44;;;9.60;78.65
64080;BME280;51042;49.696;10.808;2023-04-09T05:26:57;99249.00;;;10.07;74.14
64080;BME280;51042;49.696;10.808;2023-04-09T05:29:23;99250.75;;;10.54;72.82
64080;BME280;51042;49.696;10.808;2023-04-09T05:31:48;99246.44;;;10.80;71.28
64080;BME280;51042;49.696;10.808;2023-04-09T05:34:13;99250.53;;;10.69;70.83
64080;BME280;51042;49.696;10.808;2023-04-09T05:36:39;99253.97;;;10.76;70.52
64080;BME280;51042;49.696;10.808;2023-04-09T05:39:04;99254.16;;;10.89;69.50
64080;BME280;51042;49.696;10.808;2023-04-09T05:41:29;99250.06;;;11.00;68.62
64080;BME280;51042;49.696;10.808;2023-04-09T05:43:56;99257.41;;;11.07;68.55
64080;BME280;51042;49.696;10.808;2023-04-09T05:46:21;99255.72;;;11.36;67.29
64080;BME280;51042;49.696;10.808;2023-04-09T05:48:47;99251.91;;;11.30;66.97
64080;BME280;51042;49.696;10.808;2023-04-09T05:51:12;99258.94;;;11.55;66.30
64080;BME280;51042;49.696;10.808;2023-04-09T05:53:39;99256.53;;;11.80;65.16
64080;BME280;51042;49.696;10.808;2023-04-09T05:56:14;99260.97;;;11.51;65.65
64080;BME280;51042;49.696;10.808;2023-04-09T05:58:40;99265.84;;;10.39;68.80
64080;BME280;51042;49.696;10.808;2023-04-09T06:01:05;99266.72;;;8.69;76.48
64080;BME280;51042;49.696;10.808;2023-04-09T06:03:30;99266.41;;;7.48;85.24
64080;BME280;51042;49.696;10.808;2023-04-09T06:05:56;99268.78;;;6.96;90.67
64080;BME280;51042;49.696;10.808;2023-04-09T06:08:21;99271.06;;;6.69;94.53
64080;BME280;51042;49.696;10.808;2023-04-09T06:10:46;99278.06;;;6.56;96.03
64080;BME280;51042;49.696;10.808;2023-04-09T06:13:12;99275.72;;;6.51;97.53
64080;BME280;51042;49.696;10.808;2023-04-09T06:15:37;99272.59;;;6.45;97.69
64080;BME280;51042;49.696;10.808;2023-04-09T06:18:03;99270.25;;;6.37;98.21
64080;BME280;51042;49.696;10.808;2023-04-09T06:20:28;99273.72;;;6.34;98.71
64080;BME280;51042;49.696;10.808;2023-04-09T06:22:54;99281.91;;;6.30;99.45
64080;BME280;51042;49.696;10.808;2023-04-09T06:25:20;99275.28;;;6.35;99.86
64080;BME280;51042;49.696;10.808;2023-04-09T06:27:45;99284.97;;;6.22;100.00
64080;BME280;51042;49.696;10.808;2023-04-09T06:30:10;99278.78;;;6.28;100.00
64080;BME280;51042;49.696;10.808;2023-04-09T06:32:36;99279.13;;;6.16;100.00
64080;BME280;51042;49.696;10.808;2023-04-09T06:35:01;99279.84;;;6.06;100.00
64080;BME280;51042;49.696;10.808;2023-04-09T06:37:27;99282.53;;;5.95;100.00
64080;BME280;51042;49.696;10.808;2023-04-09T06:39:52;99280.22;;;6.01;100.00
64080;BME280;51042;49.696;10.808;2023-04-09T06:42:18;99284.91;;;6.04;100.00
64080;BME280;51042;49.696;10.808;2023-04-09T06:44:43;99289.97;;;6.09;100.00
64080;BME280;51042;49.696;10.808;2023-04-09T06:47:08;99290.72;;;5.95;100.00
64080;BME280;51042;49.696;10.808;2023-04-09T06:49:34;99286.81;;;5.93;100.00
64080;BME280;51042;49.696;10.808;2023-04-09T06:51:59;99292.69;;;6.09;100.00
64080;BME280;51042;49.696;10.808;2023-04-09T06:54:25;99292.78;;;6.23;100.00
64080;BME280;51042;49.696;10.808;2023-04-09T06:56:50;99286.25;;;6.52;100.00
64080;BME280;51042;49.696;10.808;2023-04-09T06:59:15;99287.84;;;6.82;99.54
64080;BME280;51042;49.696;10.808;2023-04-09T07:01:41;99285.53;;;6.73;98.04
64080;BME280;51042;49.696;10.808;2023-04-09T07:04:07;99291.75;;;6.67;97.83
64080;BME280;51042;49.696;10.808;2023-04-09T07:06:32;99287.06;;;6.74;98.20
64080;BME280;51042;49.696;10.808;2023-04-09T07:08:57;99287.44;;;6.69;97.94
64080;BME280;51042;49.696;10.808;2023-04-09T07:11:22;99283.59;;;6.95;95.14
64080;BME280;51042;49.696;10.808;2023-04-09T07:13:48;99283.97;;;6.97;92.97
64080;BME280;51042;49.696;10.808;2023-04-09T07:16:13;99287.88;;;7.14;94.24
64080;BME280;51042;49.696;10.808;2023-04-09T07:18:38;99293.34;;;7.38;91.97
64080;BME280;51042;49.696;10.808;2023-04-09T07:21:04;99284.75;;;7.44;89.61
64080;BME280;51042;49.696;10.808;2023-04-09T07:23:30;99289.81;;;7.38;89.33
64080;BME280;51042;49.696;10.808;2023-04-09T07:26:00;99290.22;;;7.36;89.56
64080;BME280;51042;49.696;10.808;2023-04-09T07:28:29;99291.38;;;7.32;89.22
64080;BME280;51042;49.696;10.808;2023-04-09T07:30:54;99293.72;;;7.44;89.37
64080;BME280;51042;49.696;10.808;2023-04-09T07:33:19;99294.44;;;7.69;88.31
64080;BME280;51042;49.696;10.808;2023-04-09T07:35:44;99293.97;;;8.03;85.68
64080;BME280;51042;49.696;10.808;2023-04-09T07:38:10;99291.53;;;8.26;83.67
64080;BME280;51042;49.696;10.808;2023-04-09T07:40:36;99286.88;;;8.19;83.20
64080;BME280;51042;49.696;10.808;2023-04-09T07:43:01;99287.28;;;8.11;81.25
64080;BME280;51042;49.696;10.808;2023-04-09T07:45:27;99287.31;;;8.07;81.35
64080;BME280;51042;49.696;10.808;2023-04-09T07:47:53;99282.16;;;8.24;80.85
64080;BME280;51042;49.696;10.808;2023-04-09T07:50:18;99281.66;;;8.57;77.88
64080;BME280;51042;49.696;10.808;2023-04-09T07:52:43;99282.69;;;8.81;76.40
64080;BME280;51042;49.696;10.808;2023-04-09T07:55:09;99285.97;;;8.51;76.90
64080;BME280;51042;49.696;10.808;2023-04-09T07:57:34;99289.91;;;8.46;76.73
64080;BME280;51042;49.696;10.808;2023-04-09T08:00:00;99285.22;;;8.50;77.52
64080;BME280;51042;49.696;10.808;2023-04-09T08:02:26;99289.72;;;8.78;75.41
64080;BME280;51042;49.696;10.808;2023-04-09T08:04:51;99292.81;;;8.84;75.05
64080;BME280;51042;49.696;10.808;2023-04-09T08:07:17;99291.75;;;9.19;73.60
64080;BME280;51042;49.696;10.808;2023-04-09T08:09:42;99294.16;;;9.17;71.99
64080;BME280;51042;49.696;10.808;2023-04-09T08:12:07;99301.25;;;9.55;71.43
64080;BME280;51042;49.696;10.808;2023-04-09T08:14:33;99299.84;;;9.77;69.94
64080;BME280;51042;49.696;10.808;2023-04-09T08:16:58;99291.59;;;9.81;68.87
64080;BME280;51042;49.696;10.808;2023-04-09T08:19:24;99295.13;;;9.78;68.15
64080;BME280;51042;49.696;10.808;2023-04-09T08:21:49;99289.88;;;9.57;65.64
64080;BME280;51042;49.696;10.808;2023-04-09T08:24:15;99297.66;;;9.62;65.16
64080;BME280;51042;49.696;10.808;2023-04-09T08:26:41;99294.97;;;9.58;65.71
64080;BME280;51042;49.696;10.808;2023-04-09T08:29:07;99296.41;;;9.70;64.51
64080;BME280;51042;49.696;10.808;2023-04-09T08:31:34;99302.91;;;9.46;65.35
64080;BME280;51042;49.696;10.808;2023-04-09T08:34:03;99301.13;;;9.66;62.68
64080;BME280;51042;49.696;10.808;2023-04-09T08:36:28;99293.94;;;9.79;61.79
64080;BME280;51042;49.696;10.808;2023-04-09T08:38:54;99300.03;;;9.97;61.14
64080;BME280;51042;49.696;10.808;2023-04-09T08:41:23;99297.53;;;10.10;61.16
64080;BME280;51042;49.696;10.808;2023-04-09T08:43:51;99296.31;;;10.18;61.21
64080;BME280;51042;49.696;10.808;2023-04-09T08:46:20;99292.63;;;10.58;60.35
64080;BME280;51042;49.696;10.808;2023-04-09T08:48:47;99293.09;;;10.53;60.17
64080;BME280;51042;49.696;10.808;2023-04-09T08:51:17;99289.84;;;10.62;59.64
64080;BME280;51042;49.696;10.808;2023-04-09T08:53:45;99292.06;;;10.97;59.47
64080;BME280;51042;49.696;10.808;2023-04-09T08:56:12;99283.97;;;11.14;60.12
64080;BME280;51042;49.696;10.808;2023-04-09T08:58:43;99289.25;;;10.78;59.70
64080;BME280;51042;49.696;10.808;2023-04-09T09:01:17;99291.34;;;10.67;59.69
64080;BME280;51042;49.696;10.808;2023-04-09T09:03:53;99287.31;;;11.01;59.95
64080;BME280;51042;49.696;10.808;2023-04-09T09:06:29;99285.16;;;11.82;59.06
64080;BME280;51042;49.696;10.808;2023-04-09T09:11:28;99284.44;;;11.09;57.64
64080;BME280;51042;49.696;10.808;2023-04-09T09:14:04;99292.59;;;10.62;58.84
64080;BME280;51042;49.696;10.808;2023-04-09T09:16:40;99288.56;;;10.40;60.27
64080;BME280;51042;49.696;10.808;2023-04-09T09:21:56;99293.38;;;10.89;58.15
64080;BME280;51042;49.696;10.808;2023-04-09T09:24:23;99294.72;;;11.51;57.38
64080;BME280;51042;49.696;10.808;2023-04-09T09:26:48;99289.84;;;11.85;57.87
64080;BME280;51042;49.696;10.808;2023-04-09T09:29:13;99293.00;;;11.61;57.18
64080;BME280;51042;49.696;10.808;2023-04-09T09:31:45;99288.63;;;11.63;54.58
64080;BME280;51042;49.696;10.808;2023-04-09T09:34:13;99288.88;;;11.26;54.99
64080;BME280;51042;49.696;10.808;2023-04-09T09:36:39;99294.53;;;11.15;55.76
64080;BME280;51042;49.696;10.808;2023-04-09T09:39:05;99296.47;;;11.41;57.58
64080;BME280;51042;49.696;10.808;2023-04-09T09:41:34;99290.25;;;11.37;56.86
64080;BME280;51042;49.696;10.808;2023-04-09T09:44:00;99297.53;;;11.24;54.67
64080;BME280;51042;49.696;10.808;2023-04-09T09:46:26;99301.19;;;10.91;54.69
64080;BME280;51042;49.696;10.808;2023-04-09T09:48:52;99296.94;;;10.59;56.15
64080;BME280;51042;49.696;10.808;2023-04-09T09:51:17;99302.28;;;10.70;56.16
64080;BME280;51042;49.696;10.808;2023-04-09T09:53:46;99302.03;;;10.88;55.27
64080;BME280;51042;49.696;10.808;2023-04-09T09:56:18;99294.59;;;10.85;54.87
64080;BME280;51042;49.696;10.808;2023-04-09T10:01:45;99299.03;;;11.75;53.64
64080;BME280;51042;49.696;10.808;2023-04-09T10:04:15;99279.00;;;12.34;50.64
64080;BME280;51042;49.696;10.808;2023-04-09T10:06:42;99276.75;;;12.49;50.33
64080;BME280;51042;49.696;10.808;2023-04-09T10:09:08;99281.84;;;12.31;49.37
64080;BME280;51042;49.696;10.808;2023-04-09T10:11:35;99279.53;;;12.29;51.15
64080;BME280;51042;49.696;10.808;2023-04-09T10:14:01;99275.09;;;12.51;49.55
64080;BME280;51042;49.696;10.808;2023-04-09T10:16:27;99278.81;;;12.25;50.75
64080;BME280;51042;49.696;10.808;2023-04-09T10:18:54;99271.53;;;11.52;52.17
64080;BME280;51042;49.696;10.808;2023-04-09T10:24:11;99280.69;;;11.22;53.02
64080;BME280;51042;49.696;10.808;2023-04-09T10:26:40;99273.41;;;11.35;53.50
64080;BME280;51042;49.696;10.808;2023-04-09T10:29:07;99276.22;;;11.32;52.48
64080;BME280;51042;49.696;10.808;2023-04-09T10:31:51;99274.97;;;12.03;51.23
64080;BME280;51042;49.696;10.808;2023-04-09T10:34:20;99269.97;;;12.69;48.94
64080;BME280;51042;49.696;10.808;2023-04-09T10:36:51;99266.19;;;13.16;49.00
64080;BME280;51042;49.696;10.808;2023-04-09T10:39:20;99263.31;;;13.35;47.58
64080;BME280;51042;49.696;10.808;2023-04-09T10:41:45;99259.63;;;13.26;46.83
64080;BME280;51042;49.696;10.808;2023-04-09T10:44:23;99262.31;;;13.74;46.41
64080;BME280;51042;49.696;10.808;2023-04-09T10:46:55;99259.63;;;13.71;47.00
64080;BME280;51042;49.696;10.808;2023-04-09T10:49:21;99257.03;;;14.63;44.58
64080;BME280;51042;49.696;10.808;2023-04-09T10:59:36;99249.13;;;13.82;45.58
64080;BME280;51042;49.696;10.808;2023-04-09T11:02:05;99254.63;;;14.11;45.66
64080;BME280;51042;49.696;10.808;2023-04-09T11:04:38;99251.41;;;14.25;46.16
64080;BME280;51042;49.696;10.808;2023-04-09T11:07:12;99240.97;;;15.21;43.75
64080;BME280;51042;49.696;10.808;2023-04-09T11:09:40;99245.22;;;15.00;43.82
64080;BME280;51042;49.696;10.808;2023-04-09T11:12:05;99235.75;;;15.70;43.75
64080;BME280;51042;49.696;10.808;2023-04-09T11:14:32;99232.03;;;15.51;42.60
64080;BME280;51042;49.696;10.808;2023-04-09T11:16:57;99225.69;;;15.29;43.22
64080;BME280;51042;49.696;10.808;2023-04-09T11:19:23;99227.94;;;15.43;42.05
64080;BME280;51042;49.696;10.808;2023-04-09T11:21:48;99228.31;;;15.33;44.65
64080;BME280;51042;49.696;10.808;2023-04-09T11:24:14;99225.53;;;15.45;43.68
64080;BME280;51042;49.696;10.808;2023-04-09T11:26:44;99233.44;;;15.22;42.01
64080;BME280;51042;49.696;10.808;2023-04-09T11:29:11;99236.97;;;13.34;45.50
64080;BME280;51042;49.696;10.808;2023-04-09T11:31:36;99241.53;;;12.92;47.23
64080;BME280;51042;49.696;10.808;2023-04-09T11:34:02;99231.84;;;12.52;47.26
64080;BME280;51042;49.696;10.808;2023-04-09T11:36:27;99236.16;;;12.53;47.40
64080;BME280;51042;49.696;10.808;2023-04-09T11:38:56;99228.47;;;12.44;46.71
64080;BME280;51042;49.696;10.808;2023-04-09T11:41:34;99228.91;;;12.43;46.81
64080;BME280;51042;49.696;10.808;2023-04-09T11:44:09;99225.44;;;12.75;46.57
64080;BME280;51042;49.696;10.808;2023-04-09T11:46:34;99236.50;;;12.71;46.16
64080;BME280;51042;49.696;10.808;2023-04-09T11:49:01;99230.88;;;13.27;45.11
64080;BME280;51042;49.696;10.808;2023-04-09T11:51:27;99228.88;;;13.72;46.50
64080;BME280;51042;49.696;10.808;2023-04-09T11:53:55;99223.78;;;14.00;44.00
64080;BME280;51042;49.696;10.808;2023-04-09T11:56:27;99228.28;;;13.94;44.17
64080;BME280;51042;49.696;10.808;2023-04-09T11:58:53;99227.88;;;13.21;42.80
64080;BME280;51042;49.696;10.808;2023-04-09T12:01:20;99217.94;;;13.40;46.02
64080;BME280;51042;49.696;10.808;2023-04-09T12:03:51;99224.53;;;14.80;44.16
64080;BME280;51042;49.696;10.808;2023-04-09T12:06:20;99215.72;;;16.10;41.18
64080;BME280;51042;49.696;10.808;2023-04-09T12:08:52;99216.63;;;16.59;39.00
64080;BME280;51042;49.696;10.808;2023-04-09T12:11:19;99219.09;;;17.06;37.91
64080;BME280;51042;49.696;10.808;2023-04-09T12:13:45;99221.75;;;17.28;39.12
64080;BME280;51042;49.696;10.808;2023-04-09T12:16:11;99230.84;;;15.74;38.81
64080;BME280;51042;49.696;10.808;2023-04-09T12:18:36;99227.16;;;14.32;41.74
64080;BME280;51042;49.696;10.808;2023-04-09T12:21:02;99228.09;;;14.13;42.17
64080;BME280;51042;49.696;10.808;2023-04-09T12:23:28;99227.41;;;13.97;41.97
64080;BME280;51042;49.696;10.808;2023-04-09T12:25:55;99228.63;;;13.67;42.28
64080;BME280;51042;49.696;10.808;2023-04-09T12:28:24;99228.63;;;13.67;43.13
64080;BME280;51042;49.696;10.808;2023-04-09T12:30:50;99224.06;;;13.31;43.17
64080;BME280;51042;49.696;10.808;2023-04-09T12:33:15;99218.97;;;13.75;43.05
64080;BME280;51042;49.696;10.808;2023-04-09T12:35:41;99219.78;;;13.88;42.10
64080;BME280;51042;49.696;10.808;2023-04-09T12:38:06;99217.94;;;13.24;42.84
64080;BME280;51042;49.696;10.808;2023-04-09T12:40:31;99210.09;;;13.38;43.07
64080;BME280;51042;49.696;10.808;2023-04-09T12:42:57;99208.84;;;14.77;42.76
64080;BME280;51042;49.696;10.808;2023-04-09T12:45:22;99204.16;;;15.80;40.49
64080;BME280;51042;49.696;10.808;2023-04-09T12:47:48;99198.44;;;16.58;39.78
64080;BME280;51042;49.696;10.808;2023-04-09T12:50:13;99203.34;;;16.94;37.34
64080;BME280;51042;49.696;10.808;2023-04-09T12:52:40;99203.72;;;16.34;39.23
64080;BME280;51042;49.696;10.808;2023-04-09T12:55:06;99191.34;;;15.52;38.81
64080;BME280;51042;49.696;10.808;2023-04-09T12:57:31;99194.09;;;15.74;40.65
64080;BME280;51042;49.696;10.808;2023-04-09T12:59:57;99193.31;;;16.48;39.51
64080;BME280;51042;49.696;10.808;2023-04-09T13:02:23;99192.16;;;17.52;38.25
64080;BME280;51042;49.696;10.808;2023-04-09T13:04:49;99179.19;;;17.04;36.48
64080;BME280;51042;49.696;10.808;2023-04-09T13:07:15;99181.72;;;16.09;39.21
64080;BME280;51042;49.696;10.808;2023-04-09T13:09:44;99176.00;;;17.51;37.68
64080;BME280;51042;49.696;10.808;2023-04-09T13:12:10;99178.91;;;17.20;36.36
64080;BME280;51042;49.696;10.808;2023-04-09T13:14:39;99173.06;;;17.54;34.49
64080;BME280;51042;49.696;10.808;2023-04-09T13:17:05;99171.56;;;17.63;36.19